Aviation Digital Data Service (ADDS)

Output produced by METARs form (2217 UTC 10 December 2016)
found at http://aviationweather.gov/adds/metars/
 
KBWI 102141Z 1022/1124 28012G18KT P6SM FEW050 
     FM102300 29005KT P6SM SKC 
     FM110700 VRB03KT P6SM BKN100 
     FM111500 14005KT P6SM OVC070